sensor_id;sensor_type;location;lat;lon;timestamp;P1;durP1;ratioP1;P2;durP2;ratioP2
6665;SDS011;3369;49.906;8.598;2023-07-28T00:01:34;5.33;;;3.97;;
6665;SDS011;3369;49.906;8.598;2023-07-28T00:03:59;4.30;;;3.90;;
6665;SDS011;3369;49.906;8.598;2023-07-28T00:06:25;3.73;;;3.43;;
6665;SDS011;3369;49.906;8.598;2023-07-28T00:08:51;5.03;;;3.93;;
6665;SDS011;3369;49.906;8.598;2023-07-28T00:11:16;3.97;;;3.67;;
6665;SDS011;3369;49.906;8.598;2023-07-28T00:13:42;4.70;;;4.17;;
6665;SDS011;3369;49.906;8.598;2023-07-28T00:16:08;4.47;;;3.93;;
6665;SDS011;3369;49.906;8.598;2023-07-28T00:18:35;4.07;;;3.67;;
6665;SDS011;3369;49.906;8.598;2023-07-28T00:21:00;3.33;;;3.00;;
6665;SDS011;3369;49.906;8.598;2023-07-28T00:23:27;4.73;;;3.43;;
6665;SDS011;3369;49.906;8.598;2023-07-28T00:25:53;3.63;;;3.33;;
6665;SDS011;3369;49.906;8.598;2023-07-28T00:28:19;3.90;;;3.60;;
6665;SDS011;3369;49.906;8.598;2023-07-28T00:30:48;3.73;;;3.43;;
6665;SDS011;3369;49.906;8.598;2023-07-28T00:33:15;4.80;;;3.27;;
6665;SDS011;3369;49.906;8.598;2023-07-28T00:35:40;5.77;;;4.20;;
6665;SDS011;3369;49.906;8.598;2023-07-28T00:38:06;4.83;;;3.97;;
6665;SDS011;3369;49.906;8.598;2023-07-28T00:40:32;3.60;;;3.30;;
6665;SDS011;3369;49.906;8.598;2023-07-28T00:42:57;3.40;;;3.20;;
6665;SDS011;3369;49.906;8.598;2023-07-28T00:45:23;4.07;;;3.53;;
6665;SDS011;3369;49.906;8.598;2023-07-28T00:47:48;4.00;;;3.50;;
6665;SDS011;3369;49.906;8.598;2023-07-28T00:50:14;4.17;;;3.40;;
6665;SDS011;3369;49.906;8.598;2023-07-28T00:52:40;3.33;;;3.13;;
6665;SDS011;3369;49.906;8.598;2023-07-28T00:55:06;3.00;;;2.80;;
6665;SDS011;3369;49.906;8.598;2023-07-28T00:57:33;3.50;;;3.20;;
6665;SDS011;3369;49.906;8.598;2023-07-28T00:59:59;4.63;;;3.57;;
6665;SDS011;3369;49.906;8.598;2023-07-28T01:02:25;4.30;;;3.90;;
6665;SDS011;3369;49.906;8.598;2023-07-28T01:04:51;3.80;;;3.50;;
6665;SDS011;3369;49.906;8.598;2023-07-28T01:07:19;4.53;;;4.13;;
6665;SDS011;3369;49.906;8.598;2023-07-28T01:12:42;3.80;;;3.50;;
6665;SDS011;3369;49.906;8.598;2023-07-28T01:15:07;5.13;;;3.40;;
6665;SDS011;3369;49.906;8.598;2023-07-28T01:17:33;3.37;;;3.07;;
6665;SDS011;3369;49.906;8.598;2023-07-28T01:19:59;4.77;;;3.73;;
6665;SDS011;3369;49.906;8.598;2023-07-28T01:27:46;5.20;;;3.70;;
6665;SDS011;3369;49.906;8.598;2023-07-28T01:30:13;3.97;;;3.40;;
6665;SDS011;3369;49.906;8.598;2023-07-28T01:32:39;3.73;;;3.40;;
6665;SDS011;3369;49.906;8.598;2023-07-28T01:35:05;3.80;;;3.50;;
6665;SDS011;3369;49.906;8.598;2023-07-28T01:37:31;4.53;;;3.23;;
6665;SDS011;3369;49.906;8.598;2023-07-28T01:39:58;3.93;;;3.53;;
6665;SDS011;3369;49.906;8.598;2023-07-28T01:42:24;3.80;;;3.50;;
6665;SDS011;3369;49.906;8.598;2023-07-28T01:44:50;4.20;;;3.47;;
6665;SDS011;3369;49.906;8.598;2023-07-28T01:47:15;4.00;;;3.60;;
6665;SDS011;3369;49.906;8.598;2023-07-28T01:49:41;3.80;;;3.47;;
6665;SDS011;3369;49.906;8.598;2023-07-28T01:52:07;3.33;;;3.13;;
6665;SDS011;3369;49.906;8.598;2023-07-28T01:54:32;4.40;;;4.00;;
6665;SDS011;3369;49.906;8.598;2023-07-28T01:56:58;3.50;;;3.23;;
6665;SDS011;3369;49.906;8.598;2023-07-28T01:59:24;4.27;;;3.37;;
6665;SDS011;3369;49.906;8.598;2023-07-28T02:01:49;3.93;;;3.63;;
6665;SDS011;3369;49.906;8.598;2023-07-28T02:04:15;3.97;;;3.30;;
6665;SDS011;3369;49.906;8.598;2023-07-28T02:06:41;3.90;;;3.60;;
6665;SDS011;3369;49.906;8.598;2023-07-28T02:09:07;4.20;;;3.80;;
6665;SDS011;3369;49.906;8.598;2023-07-28T02:11:32;4.40;;;3.37;;
6665;SDS011;3369;49.906;8.598;2023-07-28T02:13:58;4.43;;;3.67;;
6665;SDS011;3369;49.906;8.598;2023-07-28T02:16:24;5.57;;;3.77;;
6665;SDS011;3369;49.906;8.598;2023-07-28T02:18:52;4.53;;;3.93;;
6665;SDS011;3369;49.906;8.598;2023-07-28T02:21:18;4.63;;;3.83;;
6665;SDS011;3369;49.906;8.598;2023-07-28T02:23:44;4.47;;;3.47;;
6665;SDS011;3369;49.906;8.598;2023-07-28T02:26:09;4.53;;;3.60;;
6665;SDS011;3369;49.906;8.598;2023-07-28T02:28:35;3.47;;;3.20;;
6665;SDS011;3369;49.906;8.598;2023-07-28T02:31:01;4.60;;;3.70;;
6665;SDS011;3369;49.906;8.598;2023-07-28T02:33:27;3.70;;;3.40;;
6665;SDS011;3369;49.906;8.598;2023-07-28T02:35:54;3.80;;;3.03;;
6665;SDS011;3369;49.906;8.598;2023-07-28T02:38:21;3.60;;;3.30;;
6665;SDS011;3369;49.906;8.598;2023-07-28T02:40:46;4.03;;;3.20;;
6665;SDS011;3369;49.906;8.598;2023-07-28T02:43:12;2.90;;;2.70;;
6665;SDS011;3369;49.906;8.598;2023-07-28T02:45:37;3.03;;;2.83;;
6665;SDS011;3369;49.906;8.598;2023-07-28T02:48:03;3.57;;;2.83;;
6665;SDS011;3369;49.906;8.598;2023-07-28T02:50:29;3.37;;;3.17;;
6665;SDS011;3369;49.906;8.598;2023-07-28T02:52:54;3.30;;;3.00;;
6665;SDS011;3369;49.906;8.598;2023-07-28T02:55:20;3.37;;;3.07;;
6665;SDS011;3369;49.906;8.598;2023-07-28T02:57:45;3.33;;;3.03;;
6665;SDS011;3369;49.906;8.598;2023-07-28T03:00:11;3.37;;;3.17;;
6665;SDS011;3369;49.906;8.598;2023-07-28T03:02:37;3.73;;;2.97;;
6665;SDS011;3369;49.906;8.598;2023-07-28T03:05:03;2.90;;;2.70;;
6665;SDS011;3369;49.906;8.598;2023-07-28T03:07:29;2.93;;;2.67;;
6665;SDS011;3369;49.906;8.598;2023-07-28T03:09:55;4.20;;;3.80;;
6665;SDS011;3369;49.906;8.598;2023-07-28T03:12:20;3.93;;;3.63;;
6665;SDS011;3369;49.906;8.598;2023-07-28T03:14:46;3.77;;;3.47;;
6665;SDS011;3369;49.906;8.598;2023-07-28T03:17:12;4.60;;;4.20;;
6665;SDS011;3369;49.906;8.598;2023-07-28T03:19:37;4.17;;;3.77;;
6665;SDS011;3369;49.906;8.598;2023-07-28T03:22:03;4.30;;;3.90;;
6665;SDS011;3369;49.906;8.598;2023-07-28T03:24:29;4.67;;;4.20;;
6665;SDS011;3369;49.906;8.598;2023-07-28T03:26:54;4.57;;;4.17;;
6665;SDS011;3369;49.906;8.598;2023-07-28T03:29:20;4.93;;;3.93;;
6665;SDS011;3369;49.906;8.598;2023-07-28T03:31:45;3.67;;;3.30;;
6665;SDS011;3369;49.906;8.598;2023-07-28T03:34:11;4.87;;;4.17;;
6665;SDS011;3369;49.906;8.598;2023-07-28T03:36:37;4.07;;;3.60;;
6665;SDS011;3369;49.906;8.598;2023-07-28T03:39:02;6.67;;;4.00;;
6665;SDS011;3369;49.906;8.598;2023-07-28T03:41:28;4.53;;;3.77;;
6665;SDS011;3369;49.906;8.598;2023-07-28T03:43:53;4.70;;;3.90;;
6665;SDS011;3369;49.906;8.598;2023-07-28T03:46:19;3.93;;;3.33;;
6665;SDS011;3369;49.906;8.598;2023-07-28T03:48:45;4.07;;;3.63;;
6665;SDS011;3369;49.906;8.598;2023-07-28T03:51:10;3.63;;;3.30;;
6665;SDS011;3369;49.906;8.598;2023-07-28T03:53:36;4.40;;;3.97;;
6665;SDS011;3369;49.906;8.598;2023-07-28T03:56:02;3.90;;;3.60;;
6665;SDS011;3369;49.906;8.598;2023-07-28T03:58:28;3.97;;;3.37;;
6665;SDS011;3369;49.906;8.598;2023-07-28T04:00:54;4.13;;;3.73;;
6665;SDS011;3369;49.906;8.598;2023-07-28T04:03:20;3.70;;;3.27;;
6665;SDS011;3369;49.906;8.598;2023-07-28T04:05:46;3.37;;;3.07;;
6665;SDS011;3369;49.906;8.598;2023-07-28T04:08:11;3.47;;;3.27;;
6665;SDS011;3369;49.906;8.598;2023-07-28T04:10:37;3.50;;;3.17;;
6665;SDS011;3369;49.906;8.598;2023-07-28T04:13:02;2.90;;;2.70;;
6665;SDS011;3369;49.906;8.598;2023-07-28T04:15:28;3.50;;;2.93;;
6665;SDS011;3369;49.906;8.598;2023-07-28T04:17:53;3.30;;;3.10;;
6665;SDS011;3369;49.906;8.598;2023-07-28T04:20:19;3.93;;;3.17;;
6665;SDS011;3369;49.906;8.598;2023-07-28T04:22:46;3.73;;;3.37;;
6665;SDS011;3369;49.906;8.598;2023-07-28T04:25:12;3.53;;;3.20;;
6665;SDS011;3369;49.906;8.598;2023-07-28T04:27:37;2.90;;;2.70;;
6665;SDS011;3369;49.906;8.598;2023-07-28T04:30:03;2.80;;;2.60;;
6665;SDS011;3369;49.906;8.598;2023-07-28T04:32:29;4.13;;;2.97;;
6665;SDS011;3369;49.906;8.598;2023-07-28T04:34:55;2.97;;;2.77;;
6665;SDS011;3369;49.906;8.598;2023-07-28T04:37:22;3.03;;;2.83;;
6665;SDS011;3369;49.906;8.598;2023-07-28T04:39:47;3.83;;;3.53;;
6665;SDS011;3369;49.906;8.598;2023-07-28T04:42:13;3.07;;;2.77;;
6665;SDS011;3369;49.906;8.598;2023-07-28T04:44:38;3.80;;;3.40;;
6665;SDS011;3369;49.906;8.598;2023-07-28T04:47:07;3.70;;;3.40;;
6665;SDS011;3369;49.906;8.598;2023-07-28T04:49:32;3.40;;;3.17;;
6665;SDS011;3369;49.906;8.598;2023-07-28T04:51:58;3.43;;;3.10;;
6665;SDS011;3369;49.906;8.598;2023-07-28T04:54:24;2.90;;;2.70;;
6665;SDS011;3369;49.906;8.598;2023-07-28T04:56:49;3.50;;;3.20;;
6665;SDS011;3369;49.906;8.598;2023-07-28T04:59:18;4.07;;;3.67;;
6665;SDS011;3369;49.906;8.598;2023-07-28T05:01:43;4.43;;;3.60;;
6665;SDS011;3369;49.906;8.598;2023-07-28T05:04:09;3.20;;;2.90;;
6665;SDS011;3369;49.906;8.598;2023-07-28T05:06:35;4.57;;;3.20;;
6665;SDS011;3369;49.906;8.598;2023-07-28T05:09:00;3.50;;;3.20;;
6665;SDS011;3369;49.906;8.598;2023-07-28T05:11:26;4.37;;;3.37;;
6665;SDS011;3369;49.906;8.598;2023-07-28T05:13:52;3.50;;;3.20;;
6665;SDS011;3369;49.906;8.598;2023-07-28T05:16:18;3.10;;;2.80;;
6665;SDS011;3369;49.906;8.598;2023-07-28T05:18:43;3.73;;;3.43;;
6665;SDS011;3369;49.906;8.598;2023-07-28T05:21:09;3.17;;;2.97;;
6665;SDS011;3369;49.906;8.598;2023-07-28T05:23:34;3.70;;;3.40;;
6665;SDS011;3369;49.906;8.598;2023-07-28T05:26:00;3.20;;;3.00;;
6665;SDS011;3369;49.906;8.598;2023-07-28T05:28:25;3.40;;;3.10;;
6665;SDS011;3369;49.906;8.598;2023-07-28T05:30:51;4.13;;;3.57;;
6665;SDS011;3369;49.906;8.598;2023-07-28T05:33:17;3.27;;;2.97;;
6665;SDS011;3369;49.906;8.598;2023-07-28T05:35:42;4.60;;;2.80;;
6665;SDS011;3369;49.906;8.598;2023-07-28T05:38:08;4.93;;;3.10;;
6665;SDS011;3369;49.906;8.598;2023-07-28T05:40:35;3.07;;;2.50;;
6665;SDS011;3369;49.906;8.598;2023-07-28T05:43:00;3.27;;;3.00;;
6665;SDS011;3369;49.906;8.598;2023-07-28T05:45:26;3.23;;;2.70;;
6665;SDS011;3369;49.906;8.598;2023-07-28T05:47:51;2.87;;;2.63;;
6665;SDS011;3369;49.906;8.598;2023-07-28T05:50:17;2.67;;;2.47;;
6665;SDS011;3369;49.906;8.598;2023-07-28T05:52:43;3.27;;;3.00;;
6665;SDS011;3369;49.906;8.598;2023-07-28T05:55:08;2.90;;;2.70;;
6665;SDS011;3369;49.906;8.598;2023-07-28T05:57:34;4.03;;;2.90;;
6665;SDS011;3369;49.906;8.598;2023-07-28T05:59:59;2.90;;;2.70;;
6665;SDS011;3369;49.906;8.598;2023-07-28T06:02:25;3.37;;;2.97;;
6665;SDS011;3369;49.906;8.598;2023-07-28T06:04:50;3.10;;;2.90;;
6665;SDS011;3369;49.906;8.598;2023-07-28T06:07:17;2.97;;;2.60;;
6665;SDS011;3369;49.906;8.598;2023-07-28T06:09:42;2.80;;;2.60;;
6665;SDS011;3369;49.906;8.598;2023-07-28T06:12:08;2.90;;;2.47;;
6665;SDS011;3369;49.906;8.598;2023-07-28T06:14:33;3.20;;;2.80;;
6665;SDS011;3369;49.906;8.598;2023-07-28T06:16:59;2.37;;;2.17;;
6665;SDS011;3369;49.906;8.598;2023-07-28T06:19:24;2.10;;;2.00;;
6665;SDS011;3369;49.906;8.598;2023-07-28T06:21:50;2.90;;;2.20;;
6665;SDS011;3369;49.906;8.598;2023-07-28T06:24:16;2.27;;;2.17;;
6665;SDS011;3369;49.906;8.598;2023-07-28T06:26:43;2.30;;;2.10;;
6665;SDS011;3369;49.906;8.598;2023-07-28T06:29:08;2.30;;;2.13;;
6665;SDS011;3369;49.906;8.598;2023-07-28T06:31:34;2.10;;;2.00;;
6665;SDS011;3369;49.906;8.598;2023-07-28T06:33:59;2.60;;;1.70;;
6665;SDS011;3369;49.906;8.598;2023-07-28T06:36:25;2.20;;;1.87;;
6665;SDS011;3369;49.906;8.598;2023-07-28T06:38:52;2.03;;;1.93;;
6665;SDS011;3369;49.906;8.598;2023-07-28T06:41:20;1.87;;;1.77;;
6665;SDS011;3369;49.906;8.598;2023-07-28T06:43:46;2.17;;;1.70;;
6665;SDS011;3369;49.906;8.598;2023-07-28T06:46:13;2.27;;;2.03;;
6665;SDS011;3369;49.906;8.598;2023-07-28T06:48:39;3.07;;;2.27;;
6665;SDS011;3369;49.906;8.598;2023-07-28T06:51:05;2.43;;;2.20;;
6665;SDS011;3369;49.906;8.598;2023-07-28T06:53:31;4.03;;;2.20;;
6665;SDS011;3369;49.906;8.598;2023-07-28T06:55:59;2.13;;;2.03;;
6665;SDS011;3369;49.906;8.598;2023-07-28T06:58:25;2.40;;;1.80;;
6665;SDS011;3369;49.906;8.598;2023-07-28T07:00:50;1.50;;;1.40;;
6665;SDS011;3369;49.906;8.598;2023-07-28T07:03:16;1.57;;;1.47;;
6665;SDS011;3369;49.906;8.598;2023-07-28T07:05:42;1.90;;;1.40;;
6665;SDS011;3369;49.906;8.598;2023-07-28T07:08:08;1.57;;;1.47;;
6665;SDS011;3369;49.906;8.598;2023-07-28T07:10:34;1.30;;;1.30;;
6665;SDS011;3369;49.906;8.598;2023-07-28T07:12:59;2.10;;;1.43;;
6665;SDS011;3369;49.906;8.598;2023-07-28T07:15:26;2.20;;;1.40;;
6665;SDS011;3369;49.906;8.598;2023-07-28T07:17:54;1.80;;;1.63;;
6665;SDS011;3369;49.906;8.598;2023-07-28T07:20:20;1.63;;;1.30;;
6665;SDS011;3369;49.906;8.598;2023-07-28T07:22:45;2.23;;;1.30;;
6665;SDS011;3369;49.906;8.598;2023-07-28T07:25:12;1.37;;;1.10;;
6665;SDS011;3369;49.906;8.598;2023-07-28T07:27:37;1.40;;;1.30;;
6665;SDS011;3369;49.906;8.598;2023-07-28T07:30:03;1.43;;;1.10;;
6665;SDS011;3369;49.906;8.598;2023-07-28T07:32:29;1.07;;;1.07;;
6665;SDS011;3369;49.906;8.598;2023-07-28T07:34:55;1.23;;;1.13;;
6665;SDS011;3369;49.906;8.598;2023-07-28T07:37:20;1.53;;;1.13;;
6665;SDS011;3369;49.906;8.598;2023-07-28T07:39:46;1.67;;;1.57;;
6665;SDS011;3369;49.906;8.598;2023-07-28T07:42:12;1.37;;;1.17;;
6665;SDS011;3369;49.906;8.598;2023-07-28T07:44:38;1.40;;;1.30;;
6665;SDS011;3369;49.906;8.598;2023-07-28T07:47:11;1.50;;;1.40;;
6665;SDS011;3369;49.906;8.598;2023-07-28T07:49:38;2.10;;;1.40;;
6665;SDS011;3369;49.906;8.598;2023-07-28T07:52:05;1.37;;;1.30;;
6665;SDS011;3369;49.906;8.598;2023-07-28T07:54:31;1.40;;;1.30;;
6665;SDS011;3369;49.906;8.598;2023-07-28T07:56:57;1.33;;;1.33;;
6665;SDS011;3369;49.906;8.598;2023-07-28T07:59:23;2.57;;;1.10;;
6665;SDS011;3369;49.906;8.598;2023-07-28T08:01:52;1.27;;;1.17;;
6665;SDS011;3369;49.906;8.598;2023-07-28T08:04:19;1.20;;;1.10;;
6665;SDS011;3369;49.906;8.598;2023-07-28T08:06:44;1.83;;;1.30;;
6665;SDS011;3369;49.906;8.598;2023-07-28T08:09:10;1.33;;;1.13;;
6665;SDS011;3369;49.906;8.598;2023-07-28T08:11:35;1.40;;;1.30;;
6665;SDS011;3369;49.906;8.598;2023-07-28T08:14:01;1.60;;;1.50;;
6665;SDS011;3369;49.906;8.598;2023-07-28T08:16:27;1.90;;;1.30;;
6665;SDS011;3369;49.906;8.598;2023-07-28T08:18:52;1.03;;;1.03;;
6665;SDS011;3369;49.906;8.598;2023-07-28T08:21:18;1.20;;;1.10;;
6665;SDS011;3369;49.906;8.598;2023-07-28T08:23:44;1.93;;;1.20;;
6665;SDS011;3369;49.906;8.598;2023-07-28T08:26:10;1.40;;;1.30;;
6665;SDS011;3369;49.906;8.598;2023-07-28T08:28:35;1.23;;;1.13;;
6665;SDS011;3369;49.906;8.598;2023-07-28T08:31:01;1.43;;;1.33;;
6665;SDS011;3369;49.906;8.598;2023-07-28T08:33:28;1.60;;;1.50;;
6665;SDS011;3369;49.906;8.598;2023-07-28T08:35:54;1.87;;;1.70;;
6665;SDS011;3369;49.906;8.598;2023-07-28T08:38:20;2.03;;;1.80;;
6665;SDS011;3369;49.906;8.598;2023-07-28T08:40:45;1.83;;;1.73;;
6665;SDS011;3369;49.906;8.598;2023-07-28T08:43:11;1.67;;;1.47;;
6665;SDS011;3369;49.906;8.598;2023-07-28T08:45:37;1.87;;;1.77;;
6665;SDS011;3369;49.906;8.598;2023-07-28T08:48:03;2.20;;;2.00;;
6665;SDS011;3369;49.906;8.598;2023-07-28T08:50:29;2.10;;;2.00;;
6665;SDS011;3369;49.906;8.598;2023-07-28T08:52:56;1.90;;;1.80;;
6665;SDS011;3369;49.906;8.598;2023-07-28T08:55:21;2.10;;;1.90;;
6665;SDS011;3369;49.906;8.598;2023-07-28T08:57:48;1.93;;;1.83;;
6665;SDS011;3369;49.906;8.598;2023-07-28T09:00:14;2.90;;;2.50;;
6665;SDS011;3369;49.906;8.598;2023-07-28T09:02:42;3.73;;;2.53;;
6665;SDS011;3369;49.906;8.598;2023-07-28T09:05:18;1.53;;;1.17;;
6665;SDS011;3369;49.906;8.598;2023-07-28T09:07:45;1.30;;;1.20;;
6665;SDS011;3369;49.906;8.598;2023-07-28T09:10:12;1.50;;;1.40;;
6665;SDS011;3369;49.906;8.598;2023-07-28T09:12:45;1.47;;;1.37;;
6665;SDS011;3369;49.906;8.598;2023-07-28T09:15:12;1.10;;;1.10;;
6665;SDS011;3369;49.906;8.598;2023-07-28T09:17:41;1.17;;;1.17;;
6665;SDS011;3369;49.906;8.598;2023-07-28T09:20:14;1.10;;;1.10;;
6665;SDS011;3369;49.906;8.598;2023-07-28T09:22:41;1.50;;;1.40;;
6665;SDS011;3369;49.906;8.598;2023-07-28T09:25:12;2.30;;;1.70;;
6665;SDS011;3369;49.906;8.598;2023-07-28T09:27:39;1.43;;;1.33;;
6665;SDS011;3369;49.906;8.598;2023-07-28T09:30:05;1.60;;;1.50;;
6665;SDS011;3369;49.906;8.598;2023-07-28T09:32:33;1.23;;;1.13;;
6665;SDS011;3369;49.906;8.598;2023-07-28T09:35:09;1.40;;;1.30;;
6665;SDS011;3369;49.906;8.598;2023-07-28T09:37:38;1.53;;;1.37;;
6665;SDS011;3369;49.906;8.598;2023-07-28T09:40:16;0.90;;;0.90;;
6665;SDS011;3369;49.906;8.598;2023-07-28T09:42:44;1.57;;;1.37;;
6665;SDS011;3369;49.906;8.598;2023-07-28T09:45:14;1.40;;;1.30;;
6665;SDS011;3369;49.906;8.598;2023-07-28T09:47:43;1.80;;;1.70;;
6665;SDS011;3369;49.906;8.598;2023-07-28T09:50:10;1.63;;;1.53;;
6665;SDS011;3369;49.906;8.598;2023-07-28T09:52:42;1.80;;;1.70;;
6665;SDS011;3369;49.906;8.598;2023-07-28T09:55:10;1.40;;;1.30;;
6665;SDS011;3369;49.906;8.598;2023-07-28T09:57:39;1.20;;;1.20;;
6665;SDS011;3369;49.906;8.598;2023-07-28T10:00:19;1.50;;;1.40;;
6665;SDS011;3369;49.906;8.598;2023-07-28T10:02:47;1.33;;;1.23;;
6665;SDS011;3369;49.906;8.598;2023-07-28T10:05:13;1.40;;;1.30;;
6665;SDS011;3369;49.906;8.598;2023-07-28T10:07:41;1.00;;;1.00;;
6665;SDS011;3369;49.906;8.598;2023-07-28T10:10:11;0.83;;;0.83;;
6665;SDS011;3369;49.906;8.598;2023-07-28T10:12:41;0.87;;;0.87;;
6665;SDS011;3369;49.906;8.598;2023-07-28T10:15:08;1.00;;;0.90;;
6665;SDS011;3369;49.906;8.598;2023-07-28T10:17:40;0.80;;;0.80;;
6665;SDS011;3369;49.906;8.598;2023-07-28T10:23:02;1.30;;;1.20;;
6665;SDS011;3369;49.906;8.598;2023-07-28T10:25:28;1.30;;;1.20;;
6665;SDS011;3369;49.906;8.598;2023-07-28T10:27:59;2.30;;;1.20;;
6665;SDS011;3369;49.906;8.598;2023-07-28T10:30:25;1.73;;;1.40;;
6665;SDS011;3369;49.906;8.598;2023-07-28T10:32:50;3.83;;;1.17;;
6665;SDS011;3369;49.906;8.598;2023-07-28T10:37:48;1.70;;;1.60;;
6665;SDS011;3369;49.906;8.598;2023-07-28T10:40:23;1.43;;;1.33;;
6665;SDS011;3369;49.906;8.598;2023-07-28T10:42:52;1.80;;;1.70;;
6665;SDS011;3369;49.906;8.598;2023-07-28T10:45:19;2.60;;;2.40;;
6665;SDS011;3369;49.906;8.598;2023-07-28T10:47:48;1.80;;;1.70;;
6665;SDS011;3369;49.906;8.598;2023-07-28T10:50:14;3.10;;;2.00;;
6665;SDS011;3369;49.906;8.598;2023-07-28T10:52:41;2.33;;;1.77;;
6665;SDS011;3369;49.906;8.598;2023-07-28T10:55:14;2.50;;;2.30;;
6665;SDS011;3369;49.906;8.598;2023-07-28T10:57:46;2.03;;;1.93;;
6665;SDS011;3369;49.906;8.598;2023-07-28T11:00:14;3.40;;;2.10;;
6665;SDS011;3369;49.906;8.598;2023-07-28T11:02:42;2.80;;;2.27;;
6665;SDS011;3369;49.906;8.598;2023-07-28T11:07:52;2.93;;;2.40;;
6665;SDS011;3369;49.906;8.598;2023-07-28T11:10:20;2.13;;;2.03;;
6665;SDS011;3369;49.906;8.598;2023-07-28T11:12:47;2.40;;;2.30;;
6665;SDS011;3369;49.906;8.598;2023-07-28T11:15:15;2.70;;;2.40;;
6665;SDS011;3369;49.906;8.598;2023-07-28T11:17:48;2.60;;;2.50;;
6665;SDS011;3369;49.906;8.598;2023-07-28T11:20:18;2.70;;;2.50;;
6665;SDS011;3369;49.906;8.598;2023-07-28T11:22:46;3.40;;;2.47;;
6665;SDS011;3369;49.906;8.598;2023-07-28T11:25:22;2.50;;;2.30;;
6665;SDS011;3369;49.906;8.598;2023-07-28T11:27:50;2.40;;;1.70;;
6665;SDS011;3369;49.906;8.598;2023-07-28T11:30:16;2.20;;;2.00;;
6665;SDS011;3369;49.906;8.598;2023-07-28T11:32:43;1.70;;;1.60;;
6665;SDS011;3369;49.906;8.598;2023-07-28T11:35:11;3.33;;;1.63;;
6665;SDS011;3369;49.906;8.598;2023-07-28T11:37:38;1.63;;;1.53;;
6665;SDS011;3369;49.906;8.598;2023-07-28T11:40:05;1.40;;;1.30;;
6665;SDS011;3369;49.906;8.598;2023-07-28T11:42:33;1.40;;;1.30;;
6665;SDS011;3369;49.906;8.598;2023-07-28T11:45:00;2.60;;;1.57;;
6665;SDS011;3369;49.906;8.598;2023-07-28T11:47:28;1.17;;;1.07;;
6665;SDS011;3369;49.906;8.598;2023-07-28T11:50:00;1.57;;;1.47;;
6665;SDS011;3369;49.906;8.598;2023-07-28T11:52:34;1.60;;;1.50;;
6665;SDS011;3369;49.906;8.598;2023-07-28T11:55:02;1.70;;;1.60;;
6665;SDS011;3369;49.906;8.598;2023-07-28T11:57:30;1.60;;;1.50;;
6665;SDS011;3369;49.906;8.598;2023-07-28T11:59:56;1.17;;;1.17;;
6665;SDS011;3369;49.906;8.598;2023-07-28T12:02:26;1.47;;;1.43;;
6665;SDS011;3369;49.906;8.598;2023-07-28T12:04:58;1.77;;;1.67;;
6665;SDS011;3369;49.906;8.598;2023-07-28T12:07:27;1.67;;;1.57;;
6665;SDS011;3369;49.906;8.598;2023-07-28T12:09:57;1.70;;;1.60;;
6665;SDS011;3369;49.906;8.598;2023-07-28T12:12:41;2.30;;;1.50;;
6665;SDS011;3369;49.906;8.598;2023-07-28T12:15:18;2.00;;;1.67;;
6665;SDS011;3369;49.906;8.598;2023-07-28T12:20:26;1.10;;;1.10;;
6665;SDS011;3369;49.906;8.598;2023-07-28T12:22:57;1.40;;;1.30;;
6665;SDS011;3369;49.906;8.598;2023-07-28T12:25:23;1.43;;;1.33;;
6665;SDS011;3369;49.906;8.598;2023-07-28T12:27:48;1.00;;;1.00;;
6665;SDS011;3369;49.906;8.598;2023-07-28T12:30:14;1.53;;;1.27;;
6665;SDS011;3369;49.906;8.598;2023-07-28T12:32:39;1.10;;;1.10;;
6665;SDS011;3369;49.906;8.598;2023-07-28T12:35:05;1.00;;;1.00;;
6665;SDS011;3369;49.906;8.598;2023-07-28T12:37:31;2.83;;;1.40;;
6665;SDS011;3369;49.906;8.598;2023-07-28T12:39:57;1.60;;;1.50;;
6665;SDS011;3369;49.906;8.598;2023-07-28T12:42:22;1.70;;;1.60;;
6665;SDS011;3369;49.906;8.598;2023-07-28T12:44:48;1.23;;;1.13;;
6665;SDS011;3369;49.906;8.598;2023-07-28T12:47:13;1.60;;;1.50;;
6665;SDS011;3369;49.906;8.598;2023-07-28T12:49:39;1.50;;;1.40;;
6665;SDS011;3369;49.906;8.598;2023-07-28T12:52:05;2.23;;;1.67;;
6665;SDS011;3369;49.906;8.598;2023-07-28T12:54:34;1.30;;;1.20;;
6665;SDS011;3369;49.906;8.598;2023-07-28T12:57:00;2.33;;;1.03;;
6665;SDS011;3369;49.906;8.598;2023-07-28T12:59:26;1.43;;;1.30;;
6665;SDS011;3369;49.906;8.598;2023-07-28T13:01:53;2.07;;;1.80;;
6665;SDS011;3369;49.906;8.598;2023-07-28T13:04:19;1.60;;;1.43;;
6665;SDS011;3369;49.906;8.598;2023-07-28T13:06:44;1.63;;;1.53;;
6665;SDS011;3369;49.906;8.598;2023-07-28T13:09:10;1.93;;;1.77;;
6665;SDS011;3369;49.906;8.598;2023-07-28T13:14:05;1.20;;;1.20;;
6665;SDS011;3369;49.906;8.598;2023-07-28T13:16:31;1.03;;;1.03;;
6665;SDS011;3369;49.906;8.598;2023-07-28T13:18:57;0.93;;;0.90;;
6665;SDS011;3369;49.906;8.598;2023-07-28T13:21:22;1.00;;;0.90;;
6665;SDS011;3369;49.906;8.598;2023-07-28T13:23:48;1.13;;;1.00;;
6665;SDS011;3369;49.906;8.598;2023-07-28T13:26:14;1.20;;;1.20;;
6665;SDS011;3369;49.906;8.598;2023-07-28T13:28:40;1.10;;;1.00;;
6665;SDS011;3369;49.906;8.598;2023-07-28T13:31:11;1.17;;;1.13;;
6665;SDS011;3369;49.906;8.598;2023-07-28T13:33:37;1.43;;;1.33;;
6665;SDS011;3369;49.906;8.598;2023-07-28T13:36:03;2.00;;;1.30;;
6665;SDS011;3369;49.906;8.598;2023-07-28T13:38:32;1.30;;;1.20;;
6665;SDS011;3369;49.906;8.598;2023-07-28T13:40:57;1.03;;;1.03;;
6665;SDS011;3369;49.906;8.598;2023-07-28T13:43:23;1.30;;;1.30;;
6665;SDS011;3369;49.906;8.598;2023-07-28T13:45:49;1.50;;;1.40;;
6665;SDS011;3369;49.906;8.598;2023-07-28T13:48:14;1.53;;;1.43;;
6665;SDS011;3369;49.906;8.598;2023-07-28T13:50:40;1.70;;;1.60;;
6665;SDS011;3369;49.906;8.598;2023-07-28T13:53:05;1.87;;;1.73;;
6665;SDS011;3369;49.906;8.598;2023-07-28T13:55:31;1.40;;;1.30;;
6665;SDS011;3369;49.906;8.598;2023-07-28T13:57:57;1.20;;;1.20;;
6665;SDS011;3369;49.906;8.598;2023-07-28T14:00:23;1.67;;;1.57;;
6665;SDS011;3369;49.906;8.598;2023-07-28T14:02:48;1.57;;;1.47;;
6665;SDS011;3369;49.906;8.598;2023-07-28T14:05:14;1.17;;;1.10;;
6665;SDS011;3369;49.906;8.598;2023-07-28T14:07:40;1.53;;;1.43;;
6665;SDS011;3369;49.906;8.598;2023-07-28T14:10:05;1.53;;;1.30;;
6665;SDS011;3369;49.906;8.598;2023-07-28T14:12:31;1.20;;;1.20;;
6665;SDS011;3369;49.906;8.598;2023-07-28T14:14:57;1.20;;;1.20;;
6665;SDS011;3369;49.906;8.598;2023-07-28T14:17:22;1.30;;;1.20;;
6665;SDS011;3369;49.906;8.598;2023-07-28T14:19:48;1.63;;;1.53;;
6665;SDS011;3369;49.906;8.598;2023-07-28T14:22:13;1.33;;;1.27;;
6665;SDS011;3369;49.906;8.598;2023-07-28T14:24:39;1.40;;;1.30;;
6665;SDS011;3369;49.906;8.598;2023-07-28T14:27:05;1.60;;;1.50;;
6665;SDS011;3369;49.906;8.598;2023-07-28T14:29:31;1.63;;;1.53;;
6665;SDS011;3369;49.906;8.598;2023-07-28T14:31:56;1.70;;;1.60;;
6665;SDS011;3369;49.906;8.598;2023-07-28T14:34:22;2.03;;;1.67;;
6665;SDS011;3369;49.906;8.598;2023-07-28T14:36:48;1.87;;;1.77;;
6665;SDS011;3369;49.906;8.598;2023-07-28T14:39:13;1.47;;;1.40;;
6665;SDS011;3369;49.906;8.598;2023-07-28T14:41:39;1.60;;;1.10;;
6665;SDS011;3369;49.906;8.598;2023-07-28T14:44:06;1.73;;;1.50;;
6665;SDS011;3369;49.906;8.598;2023-07-28T14:46:31;1.20;;;1.20;;
6665;SDS011;3369;49.906;8.598;2023-07-28T14:48:57;1.17;;;1.10;;
6665;SDS011;3369;49.906;8.598;2023-07-28T14:51:23;1.20;;;1.20;;
6665;SDS011;3369;49.906;8.598;2023-07-28T14:53:48;1.37;;;1.30;;
6665;SDS011;3369;49.906;8.598;2023-07-28T14:56:15;1.57;;;1.13;;
6665;SDS011;3369;49.906;8.598;2023-07-28T14:58:42;1.00;;;1.00;;
6665;SDS011;3369;49.906;8.598;2023-07-28T15:01:11;1.17;;;1.13;;
6665;SDS011;3369;49.906;8.598;2023-07-28T15:03:37;1.30;;;1.20;;
6665;SDS011;3369;49.906;8.598;2023-07-28T15:06:03;1.17;;;1.13;;
6665;SDS011;3369;49.906;8.598;2023-07-28T15:08:29;3.10;;;1.20;;
6665;SDS011;3369;49.906;8.598;2023-07-28T15:10:56;1.20;;;1.10;;
6665;SDS011;3369;49.906;8.598;2023-07-28T15:13:22;1.40;;;1.30;;
6665;SDS011;3369;49.906;8.598;2023-07-28T15:15:48;1.20;;;1.07;;
6665;SDS011;3369;49.906;8.598;2023-07-28T15:18:14;1.33;;;1.00;;
6665;SDS011;3369;49.906;8.598;2023-07-28T15:20:40;1.50;;;1.10;;
6665;SDS011;3369;49.906;8.598;2023-07-28T15:23:07;1.00;;;1.00;;
6665;SDS011;3369;49.906;8.598;2023-07-28T15:25:33;1.23;;;1.10;;
6665;SDS011;3369;49.906;8.598;2023-07-28T15:27:59;1.37;;;1.27;;
6665;SDS011;3369;49.906;8.598;2023-07-28T15:30:24;1.20;;;1.10;;
6665;SDS011;3369;49.906;8.598;2023-07-28T15:32:50;0.87;;;0.87;;